Time;durP1;ratioP1;P1;durP2;ratioP2;P2;SDS_P1;SDS_P2;PMS_P1;PMS_P2;Temp;Humidity;BMP_temperature;BMP_pressure;BME280_temperature;BME280_humidity;BME280_pressure;Samples;Min_cycle;Max_cycle;Signal;HPM_P1;HPM_P2
2021/05/30 00:01:54;;;;;;;;;;;18.90;60.70;;;;;;5027800;28;19916;-67
2021/05/30 00:04:20;;;;;;;;;;;18.90;60.60;;;;;;5043800;28;19920;-67
2021/05/30 00:06:45;;;;;;;;;;;18.90;60.50;;;;;;5062681;28;19976;-67
2021/05/30 00:09:11;;;;;;;;;;;18.90;60.40;;;;;;5062451;28;20619;-67
2021/05/30 00:11:37;;;;;;;;;;;18.90;60.40;;;;;;5061671;28;19924;-67
2021/05/30 00:14:03;;;;;;;;;;;18.90;60.30;;;;;;5062656;28;19913;-67
2021/05/30 00:16:28;;;;;;;;;;;18.90;60.20;;;;;;5062491;28;19946;-67
2021/05/30 00:18:53;;;;;;;;;;;18.90;60.20;;;;;;5062551;28;19916;-67
2021/05/30 00:21:19;;;;;;;;;;;18.90;60.20;;;;;;5062284;28;19916;-67
2021/05/30 00:23:44;;;;;;;;;;;18.90;60.20;;;;;;5062043;28;19928;-67
2021/05/30 00:26:10;;;;;;;;;;;18.90;60.20;;;;;;5058894;28;19919;-67
2021/05/30 00:28:35;;;;;;;;;;;18.90;60.20;;;;;;5062181;28;20533;-67
2021/05/30 00:31:01;;;;;;;;;;;18.90;60.10;;;;;;5044166;28;19958;-66
2021/05/30 00:33:26;;;;;;;;;;;18.80;60.00;;;;;;5062612;28;19916;-67
2021/05/30 00:35:52;;;;;;;;;;;18.90;60.10;;;;;;5044943;28;20706;-67
2021/05/30 00:38:17;;;;;;;;;;;18.80;60.00;;;;;;5062830;28;19923;-67
2021/05/30 00:40:42;;;;;;;;;;;18.80;60.00;;;;;;5063146;28;20375;-67
2021/05/30 00:43:08;;;;;;;;;;;18.80;60.00;;;;;;5055560;28;20014;-67
2021/05/30 00:45:34;;;;;;;;;;;18.80;60.00;;;;;;5044725;28;19995;-67
2021/05/30 00:47:59;;;;;;;;;;;18.80;59.90;;;;;;5062805;28;20371;-67
2021/05/30 00:50:24;;;;;;;;;;;18.80;59.90;;;;;;5061646;28;19928;-67
2021/05/30 00:52:50;;;;;;;;;;;18.80;59.90;;;;;;5062104;28;20634;-67
2021/05/30 00:55:15;;;;;;;;;;;18.80;59.80;;;;;;5062479;28;19916;-67
2021/05/30 00:57:41;;;;;;;;;;;18.80;59.80;;;;;;5062813;28;19917;-67
2021/05/30 01:00:07;;;;;;;;;;;18.80;59.80;;;;;;5062939;28;19924;-67
2021/05/30 01:02:32;;;;;;;;;;;18.80;59.80;;;;;;5062668;28;20525;-67
2021/05/30 01:04:57;;;;;;;;;;;18.90;59.90;;;;;;5062505;28;19912;-67
2021/05/30 01:07:23;;;;;;;;;;;18.80;59.80;;;;;;5054642;28;20345;-67
2021/05/30 01:09:50;;;;;;;;;;;18.80;59.80;;;;;;5043636;28;19913;-67
2021/05/30 01:12:15;;;;;;;;;;;18.80;59.80;;;;;;5062009;28;20009;-67
2021/05/30 01:14:41;;;;;;;;;;;18.90;59.80;;;;;;5044297;28;19920;-67
2021/05/30 01:17:06;;;;;;;;;;;18.80;59.70;;;;;;5044068;28;19919;-67
2021/05/30 01:19:32;;;;;;;;;;;18.80;59.70;;;;;;5065267;28;19920;-67
2021/05/30 01:21:58;;;;;;;;;;;18.80;59.70;;;;;;5065476;28;20670;-67
2021/05/30 01:24:23;;;;;;;;;;;18.80;59.70;;;;;;5047556;28;20289;-66
2021/05/30 01:26:49;;;;;;;;;;;18.80;59.70;;;;;;5065042;28;19921;-66
2021/05/30 01:29:14;;;;;;;;;;;18.90;59.70;;;;;;5065593;28;19951;-66
2021/05/30 01:31:40;;;;;;;;;;;18.80;59.70;;;;;;5065261;28;20338;-66
2021/05/30 01:34:05;;;;;;;;;;;18.80;59.60;;;;;;5065802;28;19966;-66
2021/05/30 01:36:30;;;;;;;;;;;18.80;59.60;;;;;;5047137;28;19952;-67
2021/05/30 01:38:56;;;;;;;;;;;18.80;59.70;;;;;;5047408;28;20402;-66
2021/05/30 01:41:21;;;;;;;;;;;18.80;59.60;;;;;;5065013;28;19913;-67
2021/05/30 01:43:47;;;;;;;;;;;18.80;59.70;;;;;;5064765;28;20384;-67
2021/05/30 01:46:12;;;;;;;;;;;18.80;59.60;;;;;;5064989;28;19912;-66
2021/05/30 01:48:38;;;;;;;;;;;18.80;59.60;;;;;;5065098;28;19920;-67
2021/05/30 01:51:03;;;;;;;;;;;18.80;59.60;;;;;;5063958;28;19917;-66
2021/05/30 01:53:39;;;;;;;;;;;18.80;59.70;;;;;;5065029;28;20439;-66
2021/05/30 01:58:30;;;;;;;;;;;18.80;59.60;;;;;;5064829;28;19917;-67
2021/05/30 02:00:55;;;;;;;;;;;18.80;59.60;;;;;;5064082;28;19928;-67
2021/05/30 02:03:21;;;;;;;;;;;18.80;59.60;;;;;;5065331;28;19913;-67
2021/05/30 02:05:47;;;;;;;;;;;18.80;59.60;;;;;;5046130;28;20450;-66
2021/05/30 02:08:13;;;;;;;;;;;18.80;59.60;;;;;;5065596;28;20026;-66
2021/05/30 02:10:38;;;;;;;;;;;18.80;59.60;;;;;;5046846;28;20664;-67
2021/05/30 02:13:04;;;;;;;;;;;18.80;59.50;;;;;;5039145;28;19912;-67
2021/05/30 02:15:30;;;;;;;;;;;18.80;59.60;;;;;;5064702;28;19986;-67
2021/05/30 02:17:55;;;;;;;;;;;18.80;59.60;;;;;;5042350;28;20418;-67
2021/05/30 02:20:30;;;;;;;;;;;18.70;59.50;;;;;;5064351;28;20378;-66
2021/05/30 02:22:55;;;;;;;;;;;18.80;59.60;;;;;;5062730;28;19916;-66
2021/05/30 02:25:20;;;;;;;;;;;18.70;59.50;;;;;;5064269;28;19927;-67
2021/05/30 02:27:46;;;;;;;;;;;18.80;59.50;;;;;;5064469;28;19917;-67
2021/05/30 02:30:12;;;;;;;;;;;18.80;59.50;;;;;;5064795;28;20367;-66
2021/05/30 02:32:37;;;;;;;;;;;18.80;59.50;;;;;;5064556;28;20007;-67
2021/05/30 02:35:03;;;;;;;;;;;18.70;59.40;;;;;;5063580;28;19925;-67
2021/05/30 02:37:28;;;;;;;;;;;18.70;59.50;;;;;;5065030;28;19967;-66
2021/05/30 02:39:53;;;;;;;;;;;18.70;59.50;;;;;;5064106;28;20497;-66
2021/05/30 02:42:19;;;;;;;;;;;18.70;59.40;;;;;;5064427;28;19920;-66
2021/05/30 02:44:44;;;;;;;;;;;18.70;59.40;;;;;;5063591;28;19917;-67
2021/05/30 02:47:10;;;;;;;;;;;18.70;59.40;;;;;;5063842;28;20306;-66
2021/05/30 02:49:36;;;;;;;;;;;18.70;59.40;;;;;;5063923;28;19917;-67
2021/05/30 02:52:01;;;;;;;;;;;18.70;59.40;;;;;;5064168;28;20103;-66
2021/05/30 02:54:27;;;;;;;;;;;18.70;59.40;;;;;;5063611;28;20489;-66
2021/05/30 02:56:52;;;;;;;;;;;18.70;59.40;;;;;;5063880;28;19924;-66
2021/05/30 02:59:18;;;;;;;;;;;18.70;59.40;;;;;;5064153;28;20413;-66
2021/05/30 03:01:43;;;;;;;;;;;18.70;59.40;;;;;;5056925;28;19924;-67
2021/05/30 03:04:09;;;;;;;;;;;18.70;59.40;;;;;;5063235;28;19917;-66
2021/05/30 03:06:34;;;;;;;;;;;18.70;59.40;;;;;;5063834;28;20552;-66
2021/05/30 03:09:00;;;;;;;;;;;18.70;59.50;;;;;;5063110;28;19917;-66
2021/05/30 03:11:25;;;;;;;;;;;18.70;59.40;;;;;;5064005;28;19924;-67
2021/05/30 03:13:51;;;;;;;;;;;18.70;59.40;;;;;;5062804;28;19913;-66
2021/05/30 03:16:16;;;;;;;;;;;18.70;59.40;;;;;;5063443;28;21074;-66
2021/05/30 03:18:42;;;;;;;;;;;18.70;60.00;;;;;;5063826;28;19938;-66
2021/05/30 03:21:07;;;;;;;;;;;18.70;59.40;;;;;;5063499;28;19966;-67
2021/05/30 03:23:32;;;;;;;;;;;18.70;59.40;;;;;;5064347;28;20009;-66
2021/05/30 03:25:58;;;;;;;;;;;18.70;59.40;;;;;;5064368;28;19917;-66
2021/05/30 03:28:23;;;;;;;;;;;18.70;59.40;;;;;;5065163;28;19923;-67
2021/05/30 03:30:49;;;;;;;;;;;18.70;59.40;;;;;;5063213;28;19923;-66
2021/05/30 03:33:14;;;;;;;;;;;18.70;59.40;;;;;;5062597;28;19912;-66
2021/05/30 03:35:40;;;;;;;;;;;18.70;59.40;;;;;;5062913;28;20001;-66
2021/05/30 03:38:07;;;;;;;;;;;18.70;59.40;;;;;;5062560;28;19960;-66
2021/05/30 03:40:38;;;;;;;;;;;18.70;59.40;;;;;;5058365;28;19920;-66
2021/05/30 03:43:04;;;;;;;;;;;18.70;59.80;;;;;;5062730;28;20009;-66
2021/05/30 03:45:29;;;;;;;;;;;18.70;59.40;;;;;;5045281;28;19916;-66
2021/05/30 03:47:55;;;;;;;;;;;18.70;59.40;;;;;;5044907;28;20659;-66
2021/05/30 03:50:20;;;;;;;;;;;18.60;59.40;;;;;;5062098;28;19970;-67
2021/05/30 03:52:46;;;;;;;;;;;18.70;59.40;;;;;;5058730;28;19964;-66
2021/05/30 03:55:11;;;;;;;;;;;18.60;59.40;;;;;;5062095;28;19932;-66
2021/05/30 03:57:37;;;;;;;;;;;18.60;59.40;;;;;;5062899;28;19916;-66
2021/05/30 04:00:04;;;;;;;;;;;18.60;59.40;;;;;;5043696;28;19913;-66
2021/05/30 04:02:29;;;;;;;;;;;18.60;59.40;;;;;;5063139;28;19924;-67
2021/05/30 04:04:55;;;;;;;;;;;18.60;59.40;;;;;;5062470;28;19921;-66
2021/05/30 04:07:20;;;;;;;;;;;18.60;59.40;;;;;;5062269;28;19920;-67
2021/05/30 04:09:46;;;;;;;;;;;18.60;59.40;;;;;;5062711;28;20020;-66
2021/05/30 04:12:11;;;;;;;;;;;18.60;59.40;;;;;;5062355;28;19920;-67
2021/05/30 04:14:37;;;;;;;;;;;18.60;59.40;;;;;;5063041;28;19927;-66
2021/05/30 04:17:02;;;;;;;;;;;18.60;59.40;;;;;;5062690;28;19924;-66
2021/05/30 04:19:27;;;;;;;;;;;18.60;59.40;;;;;;5063441;28;19916;-66
2021/05/30 04:21:53;;;;;;;;;;;18.60;59.40;;;;;;5062769;28;19923;-66
2021/05/30 04:24:18;;;;;;;;;;;18.60;59.40;;;;;;5062562;28;20671;-67
2021/05/30 04:26:44;;;;;;;;;;;18.60;59.40;;;;;;5063116;28;19964;-67
2021/05/30 04:29:09;;;;;;;;;;;18.60;59.40;;;;;;5061961;28;19920;-67
2021/05/30 04:31:35;;;;;;;;;;;18.60;59.30;;;;;;5062086;28;19927;-66
2021/05/30 04:34:00;;;;;;;;;;;18.60;59.40;;;;;;5061729;28;20390;-67
2021/05/30 04:36:25;;;;;;;;;;;18.60;59.40;;;;;;5062707;28;19916;-66
2021/05/30 04:38:51;;;;;;;;;;;18.60;59.40;;;;;;5063273;28;19919;-66
2021/05/30 04:41:16;;;;;;;;;;;18.60;59.40;;;;;;5057978;28;20418;-66
2021/05/30 04:43:42;;;;;;;;;;;18.60;59.40;;;;;;5066616;22;19924;-71
2021/05/30 04:46:07;;;;;;;;;;;18.60;59.40;;;;;;5036686;28;20392;-72
2021/05/30 04:48:33;;;;;;;;;;;18.60;59.50;;;;;;5024381;28;19955;-73
2021/05/30 04:51:12;;;;;;;;;;;18.60;59.40;;;;;;5007928;28;19917;-72
2021/05/30 04:53:38;;;;;;;;;;;18.60;59.40;;;;;;5038511;28;19917;-73
2021/05/30 04:56:03;;;;;;;;;;;18.50;59.40;;;;;;5036820;28;20020;-72
2021/05/30 04:58:29;;;;;;;;;;;18.60;59.50;;;;;;5027660;28;19954;-73
2021/05/30 05:00:54;;;;;;;;;;;18.60;59.50;;;;;;5044048;28;19931;-73
2021/05/30 05:03:20;;;;;;;;;;;18.50;59.40;;;;;;5045078;28;19923;-73
2021/05/30 05:05:45;;;;;;;;;;;18.50;59.50;;;;;;5044315;28;20289;-73
2021/05/30 05:08:11;;;;;;;;;;;18.60;59.50;;;;;;5044059;28;19967;-73
2021/05/30 05:10:36;;;;;;;;;;;18.50;59.50;;;;;;5044503;28;20358;-72
2021/05/30 05:13:02;;;;;;;;;;;18.50;59.50;;;;;;5044331;28;19924;-73
2021/05/30 05:15:27;;;;;;;;;;;18.50;59.50;;;;;;5044558;28;20002;-72
2021/05/30 05:17:52;;;;;;;;;;;18.50;59.50;;;;;;5044146;28;19917;-72
2021/05/30 05:20:18;;;;;;;;;;;18.60;59.60;;;;;;5044459;28;20312;-72
2021/05/30 05:22:43;;;;;;;;;;;18.60;59.50;;;;;;5026978;28;19921;-72
2021/05/30 05:25:09;;;;;;;;;;;18.50;59.50;;;;;;5044651;28;19970;-72
2021/05/30 05:27:35;;;;;;;;;;;18.50;59.50;;;;;;5038663;22;20389;-57
2021/05/30 05:30:00;;;;;;;;;;;18.50;59.70;;;;;;5058966;28;20399;-58
2021/05/30 05:32:25;;;;;;;;;;;18.50;59.50;;;;;;5048471;28;19960;-55
2021/05/30 05:34:51;;;;;;;;;;;18.60;59.60;;;;;;5042245;28;20246;-61
2021/05/30 05:37:16;;;;;;;;;;;18.50;59.50;;;;;;5044468;28;19927;-60
2021/05/30 05:39:42;;;;;;;;;;;18.50;59.50;;;;;;5044399;28;20654;-56
2021/05/30 05:42:08;;;;;;;;;;;18.50;59.50;;;;;;5047741;28;19924;-56
2021/05/30 05:44:33;;;;;;;;;;;18.60;59.50;;;;;;5049270;28;19921;-58
2021/05/30 05:46:59;;;;;;;;;;;18.50;59.50;;;;;;5043533;28;20436;-56
2021/05/30 05:49:24;;;;;;;;;;;18.60;59.60;;;;;;5045938;28;20365;-59
2021/05/30 05:51:49;;;;;;;;;;;18.60;59.50;;;;;;5044582;28;19924;-58
2021/05/30 05:54:15;;;;;;;;;;;18.60;59.60;;;;;;5044838;28;20333;-60
2021/05/30 05:56:40;;;;;;;;;;;18.60;59.70;;;;;;5051426;28;19969;-59
2021/05/30 05:59:06;;;;;;;;;;;18.60;59.60;;;;;;5042682;28;19964;-55
2021/05/30 06:01:31;;;;;;;;;;;18.60;59.60;;;;;;5052064;28;19916;-59
2021/05/30 06:03:57;;;;;;;;;;;18.60;59.70;;;;;;5045174;28;20374;-57
2021/05/30 06:06:22;;;;;;;;;;;18.60;59.70;;;;;;5046148;28;19921;-58
2021/05/30 06:08:48;;;;;;;;;;;18.60;59.70;;;;;;5048090;28;19944;-58
2021/05/30 06:11:13;;;;;;;;;;;18.60;59.70;;;;;;5042712;28;20015;-56
2021/05/30 06:13:38;;;;;;;;;;;18.60;59.80;;;;;;5042774;28;19974;-58
2021/05/30 06:16:06;;;;;;;;;;;18.50;59.80;;;;;;5040870;28;19928;-59
2021/05/30 06:18:32;;;;;;;;;;;18.50;60.50;;;;;;5047813;28;19979;-55
2021/05/30 06:20:57;;;;;;;;;;;18.50;59.90;;;;;;5048766;28;19931;-55
2021/05/30 06:23:23;;;;;;;;;;;18.50;60.50;;;;;;5050468;28;19916;-59
2021/05/30 06:25:48;;;;;;;;;;;18.50;59.90;;;;;;5048840;28;19998;-60
2021/05/30 06:28:14;;;;;;;;;;;18.60;59.90;;;;;;5045352;28;19931;-57
2021/05/30 06:30:41;;;;;;;;;;;18.50;59.90;;;;;;5046602;28;19982;-55
2021/05/30 06:33:06;;;;;;;;;;;18.50;59.90;;;;;;5047223;28;19916;-60
2021/05/30 06:35:32;;;;;;;;;;;18.60;59.90;;;;;;5043009;28;20388;-64
2021/05/30 06:37:58;;;;;;;;;;;18.60;59.90;;;;;;5044694;28;19924;-55
2021/05/30 06:40:23;;;;;;;;;;;18.50;59.90;;;;;;5040774;28;19967;-58
2021/05/30 06:42:49;;;;;;;;;;;18.60;60.00;;;;;;5047953;28;19982;-60
2021/05/30 06:45:15;;;;;;;;;;;18.50;59.90;;;;;;5042678;28;19931;-60
2021/05/30 06:47:40;;;;;;;;;;;18.50;59.90;;;;;;5044080;28;19948;-60
2021/05/30 06:50:06;;;;;;;;;;;18.50;60.00;;;;;;5043832;28;20457;-57
2021/05/30 06:52:32;;;;;;;;;;;18.50;60.00;;;;;;5045605;28;20015;-56
2021/05/30 06:54:57;;;;;;;;;;;18.50;60.00;;;;;;5044515;28;20405;-58
2021/05/30 06:57:23;;;;;;;;;;;18.50;59.90;;;;;;5039755;28;19921;-58
2021/05/30 06:59:49;;;;;;;;;;;18.60;60.00;;;;;;5044182;28;19921;-58
2021/05/30 07:02:15;;;;;;;;;;;18.50;59.90;;;;;;5047125;28;20010;-60
2021/05/30 07:04:40;;;;;;;;;;;18.60;60.00;;;;;;5047603;28;19920;-59
2021/05/30 07:07:05;;;;;;;;;;;18.50;59.90;;;;;;5042992;28;19917;-57
2021/05/30 07:09:31;;;;;;;;;;;18.50;60.00;;;;;;5042870;28;19925;-55
2021/05/30 07:11:56;;;;;;;;;;;18.60;60.10;;;;;;5050617;28;20554;-58
2021/05/30 07:14:22;;;;;;;;;;;18.60;60.10;;;;;;5023664;28;19932;-56
2021/05/30 07:16:47;;;;;;;;;;;18.60;60.20;;;;;;5048331;28;19924;-59
2021/05/30 07:19:13;;;;;;;;;;;18.60;60.30;;;;;;5050298;28;19924;-58
2021/05/30 07:21:38;;;;;;;;;;;18.50;60.30;;;;;;5031646;28;19917;-59
2021/05/30 07:24:04;;;;;;;;;;;18.50;60.40;;;;;;5038827;28;19917;-58
2021/05/30 07:26:30;;;;;;;;;;;18.50;60.50;;;;;;5038513;28;19947;-60
2021/05/30 07:28:55;;;;;;;;;;;18.50;60.50;;;;;;5045015;28;20422;-58
2021/05/30 07:31:21;;;;;;;;;;;18.50;60.50;;;;;;5046537;28;19925;-55
2021/05/30 07:33:46;;;;;;;;;;;18.50;60.60;;;;;;5036146;28;20553;-58
2021/05/30 07:36:12;;;;;;;;;;;18.50;60.70;;;;;;5043170;28;19920;-60
2021/05/30 07:38:37;;;;;;;;;;;18.50;60.80;;;;;;5046760;28;19917;-59
2021/05/30 07:41:03;;;;;;;;;;;18.50;60.90;;;;;;5034379;28;19924;-57
2021/05/30 07:43:28;;;;;;;;;;;18.50;61.40;;;;;;5023545;28;19920;-57
2021/05/30 07:45:54;;;;;;;;;;;18.50;61.80;;;;;;5049105;28;19921;-59
2021/05/30 07:48:19;;;;;;;;;;;18.50;61.80;;;;;;5044131;28;19925;-57
2021/05/30 07:50:45;;;;;;;;;;;18.50;61.70;;;;;;5043979;28;20381;-60
2021/05/30 07:53:11;;;;;;;;;;;18.50;61.50;;;;;;5041816;28;19924;-56
2021/05/30 07:55:36;;;;;;;;;;;18.50;61.20;;;;;;5024174;28;19920;-59
2021/05/30 07:58:02;;;;;;;;;;;18.50;61.10;;;;;;5046486;28;19928;-55
2021/05/30 08:00:27;;;;;;;;;;;18.60;61.00;;;;;;5047818;28;19924;-58
2021/05/30 08:02:53;;;;;;;;;;;18.50;60.90;;;;;;5043313;28;20442;-60
2021/05/30 08:05:20;;;;;;;;;;;18.60;60.70;;;;;;5040863;28;19923;-59
2021/05/30 08:07:46;;;;;;;;;;;18.60;60.70;;;;;;5023773;28;19920;-56
2021/05/30 08:10:11;;;;;;;;;;;18.50;60.60;;;;;;5040844;28;19924;-57
2021/05/30 08:12:36;;;;;;;;;;;18.50;60.60;;;;;;5045123;28;20008;-54
2021/05/30 08:15:02;;;;;;;;;;;18.50;60.60;;;;;;5038486;28;20612;-54
2021/05/30 08:17:28;;;;;;;;;;;18.50;60.50;;;;;;5041723;28;19923;-55
2021/05/30 08:19:54;;;;;;;;;;;18.40;60.40;;;;;;5046875;28;19923;-57
2021/05/30 08:22:19;;;;;;;;;;;18.50;60.40;;;;;;5041469;28;19924;-58
2021/05/30 08:24:47;;;;;;;;;;;18.50;60.20;;;;;;5048609;28;19921;-58
2021/05/30 08:27:12;;;;;;;;;;;18.50;60.20;;;;;;5042314;28;20002;-59
2021/05/30 08:29:38;;;;;;;;;;;18.40;60.00;;;;;;5032846;28;19944;-63
2021/05/30 08:32:05;;;;;;;;;;;18.50;60.10;;;;;;5038041;28;19965;-61
2021/05/30 08:34:31;;;;;;;;;;;18.50;60.00;;;;;;5047593;28;19921;-60
2021/05/30 08:36:57;;;;;;;;;;;18.50;59.90;;;;;;5044763;28;19917;-60
2021/05/30 08:39:22;;;;;;;;;;;18.50;59.90;;;;;;5045924;28;20293;-59
2021/05/30 08:41:47;;;;;;;;;;;18.40;59.70;;;;;;5053481;28;19932;-59
2021/05/30 08:44:13;;;;;;;;;;;18.50;59.80;;;;;;5048174;28;19917;-61
2021/05/30 08:46:39;;;;;;;;;;;18.40;59.70;;;;;;5044698;28;19952;-62
2021/05/30 08:49:05;;;;;;;;;;;18.40;59.60;;;;;;5047920;28;19957;-59
2021/05/30 08:51:31;;;;;;;;;;;18.40;59.50;;;;;;5053342;28;20385;-60
2021/05/30 08:53:57;;;;;;;;;;;18.50;59.60;;;;;;5052224;28;19970;-60
2021/05/30 08:56:22;;;;;;;;;;;18.40;59.40;;;;;;5038331;28;19944;-58
2021/05/30 08:58:48;;;;;;;;;;;18.40;59.40;;;;;;5044971;28;20462;-59
2021/05/30 09:01:14;;;;;;;;;;;18.40;59.10;;;;;;5045364;28;19928;-58
2021/05/30 09:03:57;;;;;;;;;;;18.40;59.10;;;;;;5042878;28;20490;-58
2021/05/30 09:06:23;;;;;;;;;;;18.40;59.90;;;;;;5047512;28;20419;-58
2021/05/30 09:08:48;;;;;;;;;;;18.40;59.10;;;;;;5047406;28;19948;-59
2021/05/30 09:11:14;;;;;;;;;;;18.40;59.00;;;;;;5044467;28;20584;-55
2021/05/30 09:13:55;;;;;;;;;;;18.40;59.00;;;;;;5051261;28;20322;-57
2021/05/30 09:16:21;;;;;;;;;;;18.40;58.90;;;;;;5033170;28;19975;-57
2021/05/30 09:18:47;;;;;;;;;;;18.40;58.90;;;;;;5054166;28;20007;-57
2021/05/30 09:21:14;;;;;;;;;;;18.40;58.80;;;;;;5030671;28;20001;-57
2021/05/30 09:23:43;;;;;;;;;;;18.50;59.00;;;;;;5053166;28;19917;-59
2021/05/30 09:26:19;;;;;;;;;;;18.40;59.20;;;;;;5049780;28;20000;-61
2021/05/30 09:29:04;;;;;;;;;;;18.40;59.40;;;;;;5032937;28;19920;-58
2021/05/30 09:31:29;;;;;;;;;;;18.40;59.70;;;;;;5054076;28;19960;-58
2021/05/30 09:33:55;;;;;;;;;;;18.40;59.90;;;;;;5040208;28;19921;-57
2021/05/30 09:36:20;;;;;;;;;;;18.50;59.80;;;;;;5032468;28;19921;-55
2021/05/30 09:38:46;;;;;;;;;;;18.40;59.70;;;;;;5051767;28;20406;-57
2021/05/30 09:41:13;;;;;;;;;;;18.40;59.70;;;;;;5055717;28;19926;-60
2021/05/30 09:43:51;;;;;;;;;;;18.50;59.90;;;;;;5041235;28;19965;-58
2021/05/30 09:46:17;;;;;;;;;;;18.50;60.10;;;;;;5052956;28;21450;-57
2021/05/30 09:48:42;;;;;;;;;;;18.50;60.10;;;;;;5048264;28;19917;-56
2021/05/30 09:51:27;;;;;;;;;;;18.50;60.10;;;;;;5053165;28;19917;-59
2021/05/30 09:53:53;;;;;;;;;;;18.50;60.10;;;;;;5042268;28;19917;-58
2021/05/30 09:56:24;;;;;;;;;;;18.50;60.10;;;;;;5050270;28;19956;-57
2021/05/30 09:58:53;;;;;;;;;;;18.50;60.10;;;;;;5051171;28;20379;-58
2021/05/30 10:01:18;;;;;;;;;;;18.50;60.10;;;;;;5046455;28;19924;-58
2021/05/30 10:03:44;;;;;;;;;;;18.50;60.10;;;;;;5052926;28;19916;-60
2021/05/30 10:06:09;;;;;;;;;;;18.40;60.10;;;;;;5035541;28;19940;-58
2021/05/30 10:08:35;;;;;;;;;;;18.40;60.00;;;;;;5029796;28;19967;-60
2021/05/30 10:11:00;;;;;;;;;;;18.50;60.00;;;;;;5053479;28;20378;-60
2021/05/30 10:13:25;;;;;;;;;;;18.50;60.00;;;;;;5040242;28;19924;-58
2021/05/30 10:15:51;;;;;;;;;;;18.50;59.90;;;;;;5030936;28;20274;-58
2021/05/30 10:18:18;;;;;;;;;;;18.50;59.90;;;;;;5052617;28;19917;-60
2021/05/30 10:20:44;;;;;;;;;;;18.50;59.90;;;;;;5046962;28;20417;-56
2021/05/30 10:23:09;;;;;;;;;;;18.50;59.80;;;;;;5041152;28;20027;-57
2021/05/30 10:25:35;;;;;;;;;;;18.50;59.70;;;;;;5048699;28;19994;-58
2021/05/30 10:28:16;;;;;;;;;;;18.50;59.70;;;;;;5056730;28;19925;-61
2021/05/30 10:30:43;;;;;;;;;;;18.50;59.60;;;;;;5043658;28;19917;-63
2021/05/30 10:33:18;;;;;;;;;;;18.50;59.30;;;;;;5050419;28;19924;-57
2021/05/30 10:35:45;;;;;;;;;;;18.50;58.90;;;;;;5050258;28;19924;-58
2021/05/30 10:38:10;;;;;;;;;;;18.50;58.50;;;;;;5054697;28;20009;-55
2021/05/30 10:40:37;;;;;;;;;;;18.50;58.10;;;;;;5057668;28;19951;-58
2021/05/30 10:45:30;;;;;;;;;;;18.50;57.60;;;;;;5060413;28;19928;-55
2021/05/30 10:48:05;;;;;;;;;;;18.50;57.40;;;;;;5064582;28;19923;-54
2021/05/30 10:50:35;;;;;;;;;;;18.50;57.40;;;;;;5060214;28;20316;-52
2021/05/30 10:53:00;;;;;;;;;;;18.50;57.40;;;;;;5045462;28;19921;-54
2021/05/30 10:55:26;;;;;;;;;;;18.50;57.50;;;;;;5055978;28;19927;-54
2021/05/30 10:57:52;;;;;;;;;;;18.50;57.60;;;;;;5072418;28;20046;-52
2021/05/30 11:00:20;;;;;;;;;;;18.50;57.70;;;;;;5061925;28;20011;-54
2021/05/30 11:03:05;;;;;;;;;;;18.50;57.80;;;;;;5066093;28;19921;-53
2021/05/30 11:05:40;;;;;;;;;;;18.50;57.80;;;;;;5059558;28;19931;-52
2021/05/30 11:08:05;;;;;;;;;;;18.50;57.90;;;;;;5067696;28;19916;-57
2021/05/30 11:10:30;;;;;;;;;;;18.40;58.00;;;;;;5057015;28;19920;-56
2021/05/30 11:12:56;;;;;;;;;;;18.50;58.10;;;;;;5059159;28;19939;-52
2021/05/30 11:15:23;;;;;;;;;;;18.50;58.70;;;;;;5060765;28;19921;-51
2021/05/30 11:18:06;;;;;;;;;;;18.50;58.20;;;;;;5061746;28;19920;-54
2021/05/30 11:20:32;;;;;;;;;;;18.50;58.20;;;;;;5058126;28;20482;-54
2021/05/30 11:22:58;;;;;;;;;;;18.50;58.20;;;;;;5051397;28;20036;-52
2021/05/30 11:25:33;;;;;;;;;;;18.50;58.10;;;;;;5063350;28;19925;-55
2021/05/30 11:28:03;;;;;;;;;;;18.50;58.10;;;;;;5059964;28;19916;-52
2021/05/30 11:30:47;;;;;;;;;;;18.50;58.10;;;;;;5063340;28;19932;-54
2021/05/30 11:33:25;;;;;;;;;;;18.50;58.00;;;;;;5045650;28;19917;-56
2021/05/30 11:36:03;;;;;;;;;;;18.50;58.10;;;;;;5040597;28;19927;-54
2021/05/30 11:38:35;;;;;;;;;;;18.50;58.10;;;;;;5033805;28;19971;-55
2021/05/30 11:41:07;;;;;;;;;;;18.50;58.10;;;;;;5066657;28;19995;-55
2021/05/30 11:43:33;;;;;;;;;;;18.50;58.10;;;;;;5057958;28;20360;-54
2021/05/30 11:45:58;;;;;;;;;;;18.50;58.20;;;;;;5065356;28;19929;-55
2021/05/30 11:48:25;;;;;;;;;;;18.50;58.20;;;;;;5042090;28;20031;-52
2021/05/30 11:50:52;;;;;;;;;;;18.50;58.20;;;;;;5066779;28;20380;-54
2021/05/30 11:53:24;;;;;;;;;;;18.50;58.20;;;;;;5054545;28;20416;-55
2021/05/30 11:55:50;;;;;;;;;;;18.50;58.10;;;;;;5049916;28;19920;-53
2021/05/30 11:58:15;;;;;;;;;;;18.50;58.20;;;;;;5040815;28;19923;-56
2021/05/30 12:00:41;;;;;;;;;;;18.50;58.10;;;;;;5051629;28;19916;-55
2021/05/30 12:03:07;;;;;;;;;;;18.50;58.00;;;;;;5056982;28;20511;-52
2021/05/30 12:05:32;;;;;;;;;;;18.50;58.10;;;;;;5058148;28;19999;-53
2021/05/30 12:07:58;;;;;;;;;;;18.50;58.10;;;;;;5058181;28;20403;-56
2021/05/30 12:10:23;;;;;;;;;;;18.50;58.10;;;;;;5058474;28;19916;-52
2021/05/30 12:12:49;;;;;;;;;;;18.50;58.20;;;;;;5079901;28;19920;-53
2021/05/30 12:15:17;;;;;;;;;;;18.60;58.40;;;;;;5027985;28;20008;-56
2021/05/30 12:18:04;;;;;;;;;;;18.50;58.50;;;;;;5064093;28;20382;-56
2021/05/30 12:20:33;;;;;;;;;;;18.50;58.90;;;;;;5055359;28;19979;-56
2021/05/30 12:23:25;;;;;;;;;;;18.50;59.70;;;;;;5051990;28;19921;-55
2021/05/30 12:25:52;;;;;;;;;;;18.60;60.50;;;;;;5056188;28;20379;-54
2021/05/30 12:28:17;;;;;;;;;;;18.50;61.40;;;;;;5056058;28;20008;-56
2021/05/30 12:30:46;;;;;;;;;;;18.50;62.20;;;;;;5067328;28;20039;-56
2021/05/30 12:33:11;;;;;;;;;;;18.50;63.00;;;;;;5068305;28;19940;-53
2021/05/30 12:35:50;;;;;;;;;;;18.60;62.70;;;;;;5035606;28;19939;-56
2021/05/30 12:38:16;;;;;;;;;;;18.50;62.90;;;;;;5059419;28;19956;-56
2021/05/30 12:40:42;;;;;;;;;;;18.60;63.10;;;;;;5058344;28;19917;-57
2021/05/30 12:43:09;;;;;;;;;;;18.60;63.60;;;;;;5060124;28;19932;-57
2021/05/30 12:45:35;;;;;;;;;;;18.60;64.00;;;;;;5062189;28;19928;-58
2021/05/30 12:48:01;;;;;;;;;;;18.60;64.40;;;;;;5005761;28;19924;-56
2021/05/30 12:50:33;;;;;;;;;;;18.60;65.50;;;;;;5044267;28;19968;-58
2021/05/30 12:53:00;;;;;;;;;;;18.60;65.40;;;;;;5060234;28;19942;-56
2021/05/30 12:55:34;;;;;;;;;;;18.70;65.00;;;;;;5049070;28;19925;-55
2021/05/30 12:58:00;;;;;;;;;;;18.70;64.70;;;;;;5062167;28;19927;-57
2021/05/30 13:00:35;;;;;;;;;;;18.70;64.50;;;;;;5052412;28;19920;-56
2021/05/30 13:03:06;;;;;;;;;;;18.70;64.50;;;;;;5063390;28;19921;-54
2021/05/30 13:05:32;;;;;;;;;;;18.70;64.50;;;;;;5059255;28;20371;-55
2021/05/30 13:07:58;;;;;;;;;;;18.70;64.40;;;;;;5045862;28;20377;-53
2021/05/30 13:10:23;;;;;;;;;;;18.70;64.30;;;;;;5047737;28;19916;-55
2021/05/30 13:12:49;;;;;;;;;;;18.70;64.30;;;;;;5035736;28;20300;-57
2021/05/30 13:15:15;;;;;;;;;;;18.70;64.30;;;;;;5060609;28;19921;-54
2021/05/30 13:18:02;;;;;;;;;;;18.70;64.40;;;;;;5054229;28;19952;-56
2021/05/30 13:20:28;;;;;;;;;;;18.70;64.60;;;;;;5050141;28;19925;-59
2021/05/30 13:22:57;;;;;;;;;;;18.70;64.70;;;;;;5055855;28;20282;-58
2021/05/30 13:25:31;;;;;;;;;;;18.70;64.80;;;;;;5059810;28;20408;-55
2021/05/30 13:28:17;;;;;;;;;;;18.70;64.80;;;;;;5058950;28;19921;-54
2021/05/30 13:30:43;;;;;;;;;;;18.70;64.70;;;;;;5047849;28;20289;-56
2021/05/30 13:33:08;;;;;;;;;;;18.70;64.60;;;;;;5057438;28;19924;-54
2021/05/30 13:35:33;;;;;;;;;;;18.70;64.40;;;;;;5064166;28;19928;-57
2021/05/30 13:37:59;;;;;;;;;;;18.70;64.10;;;;;;5061326;28;20428;-57
2021/05/30 13:40:24;;;;;;;;;;;18.70;63.80;;;;;;5068484;28;19921;-55
2021/05/30 13:42:50;;;;;;;;;;;18.70;63.60;;;;;;5044498;28;19924;-57
2021/05/30 13:45:15;;;;;;;;;;;18.70;63.60;;;;;;5077162;28;19920;-52
2021/05/30 13:47:41;;;;;;;;;;;18.70;63.40;;;;;;5069077;28;19916;-56
2021/05/30 13:50:06;;;;;;;;;;;18.80;63.40;;;;;;5061943;28;20353;-58
2021/05/30 13:52:32;;;;;;;;;;;18.80;63.20;;;;;;5059744;28;19931;-58
2021/05/30 13:54:57;;;;;;;;;;;18.70;63.20;;;;;;5063383;28;19931;-56
2021/05/30 13:57:22;;;;;;;;;;;18.80;63.40;;;;;;5059154;28;19920;-58
2021/05/30 13:59:48;;;;;;;;;;;18.80;62.70;;;;;;5056599;28;19917;-57
2021/05/30 14:02:13;;;;;;;;;;;18.80;62.00;;;;;;5058167;28;20614;-56
2021/05/30 14:04:39;;;;;;;;;;;18.80;61.90;;;;;;5057674;28;19916;-58
2021/05/30 14:07:04;;;;;;;;;;;18.80;61.60;;;;;;5076177;28;20097;-59
2021/05/30 14:09:30;;;;;;;;;;;18.80;61.40;;;;;;5062601;28;19921;-57
2021/05/30 14:11:55;;;;;;;;;;;18.80;61.00;;;;;;5058774;28;19920;-57
2021/05/30 14:14:21;;;;;;;;;;;18.80;59.60;;;;;;5062351;28;19917;-58
2021/05/30 14:16:46;;;;;;;;;;;18.80;60.00;;;;;;5057775;28;19916;-57
2021/05/30 14:19:12;;;;;;;;;;;18.80;60.20;;;;;;5066252;28;20297;-57